Time;durP1;ratioP1;P1;durP2;ratioP2;P2;SDS_P1;SDS_P2;PMS_P1;PMS_P2;Temp;Humidity;BMP_temperature;BMP_pressure;BME280_temperature;BME280_humidity;BME280_pressure;Samples;Min_cycle;Max_cycle;Signal;HPM_P1;HPM_P2
2022/05/30 00:01:42;;;;;;;17.33;10.73;;;;;;;10.03;nan;93276.47;5009173;28;20206;-70
2022/05/30 00:04:26;;;;;;;18.30;10.17;;;;;;;10.17;nan;93284.31;5010648;28;20278;-70
2022/05/30 00:07:10;;;;;;;24.57;11.30;;;;;;;10.25;nan;93273.59;4998168;28;20254;-71
2022/05/30 00:09:54;;;;;;;22.03;11.40;;;;;;;10.12;nan;93270.00;5006608;28;20671;-71
2022/05/30 00:12:38;;;;;;;19.90;11.43;;;;;;;10.11;nan;93273.44;5010232;28;20233;-70
2022/05/30 00:15:23;;;;;;;25.47;13.20;;;;;;;10.35;nan;93271.44;5002312;28;20207;-72
2022/05/30 00:18:09;;;;;;;21.20;11.33;;;;;;;10.43;nan;93267.03;4992906;28;20304;-71
2022/05/30 00:20:53;;;;;;;23.40;11.63;;;;;;;10.28;nan;93255.59;5003353;28;20299;-70
2022/05/30 00:23:38;;;;;;;28.77;12.43;;;;;;;10.22;nan;93252.41;4999978;28;20345;-69
2022/05/30 00:26:23;;;;;;;24.70;12.67;;;;;;;10.38;nan;93247.81;4993372;28;20223;-70
2022/05/30 00:29:07;;;;;;;16.50;10.77;;;;;;;10.39;nan;93243.66;5010334;28;20568;-70
2022/05/30 00:31:51;;;;;;;16.30;9.50;;;;;;;10.32;nan;93250.22;4990335;28;20253;-69
2022/05/30 00:34:36;;;;;;;16.07;9.87;;;;;;;10.48;nan;93251.22;4992221;28;20259;-70
2022/05/30 00:37:20;;;;;;;15.73;9.20;;;;;;;10.63;nan;93250.72;4989158;28;20210;-69
2022/05/30 00:40:05;;;;;;;17.70;9.40;;;;;;;10.67;nan;93250.25;4995910;28;20281;-69
2022/05/30 00:42:50;;;;;;;16.37;7.93;;;;;;;10.49;nan;93236.59;5005720;28;20242;-69
2022/05/30 00:45:33;;;;;;;13.07;8.53;;;;;;;10.66;nan;93246.72;4980426;28;20202;-69
2022/05/30 00:48:21;;;;;;;16.03;8.67;;;;;;;10.65;nan;93245.25;4992213;28;20754;-68
2022/05/30 00:51:12;;;;;;;13.00;8.40;;;;;;;10.66;nan;93243.19;5000705;28;20203;-69
2022/05/30 00:53:57;;;;;;;14.87;8.40;;;;;;;10.59;nan;93238.56;4995763;28;20581;-69
2022/05/30 00:56:45;;;;;;;12.07;7.93;;;;;;;10.42;nan;93242.47;5002785;28;20214;-68
2022/05/30 00:59:30;;;;;;;12.13;7.57;;;;;;;10.31;nan;93243.91;4996027;28;20206;-68
2022/05/30 01:02:14;;;;;;;14.47;8.00;;;;;;;10.21;nan;93234.88;4995990;28;20621;-67
2022/05/30 01:08:02;;;;;;;14.70;8.00;;;;;;;10.04;nan;93233.16;5004455;28;20788;-68
2022/05/30 01:10:46;;;;;;;12.13;7.20;;;;;;;10.22;nan;93227.22;4998779;28;20258;-68
2022/05/30 01:13:30;;;;;;;12.87;7.33;;;;;;;10.07;nan;93220.72;5012004;28;20214;-65
2022/05/30 01:16:14;;;;;;;11.60;6.97;;;;;;;9.93;nan;93219.13;5011842;28;20215;-65
2022/05/30 01:19:01;;;;;;;19.43;8.30;;;;;;;9.85;nan;93210.22;4997361;28;20199;-66
2022/05/30 01:22:02;;;;;;;13.40;7.90;;;;;;;9.56;nan;93208.47;4977080;28;20287;-66
2022/05/30 01:24:58;;;;;;;17.20;8.47;;;;;;;9.51;nan;93206.72;4996573;28;20274;-65
2022/05/30 01:28:40;;;;;;;14.13;7.90;;;;;;;9.43;nan;93202.69;5012790;28;20560;-65
2022/05/30 01:31:25;;;;;;;12.93;7.63;;;;;;;9.43;nan;93208.28;4946353;28;20625;-66
2022/05/30 01:34:09;;;;;;;12.77;7.93;;;;;;;9.44;nan;93196.50;4995086;28;20226;-66
2022/05/30 01:36:53;;;;;;;12.50;7.87;;;;;;;9.39;nan;93191.25;4996615;28;20231;-66
2022/05/30 01:39:40;;;;;;;13.17;7.40;;;;;;;9.59;nan;93189.72;4998656;28;20238;-66
2022/05/30 01:42:25;;;;;;;15.60;7.70;;;;;;;9.42;nan;93196.38;4997434;28;20207;-66
2022/05/30 01:45:10;;;;;;;15.43;8.67;;;;;;;9.40;nan;93189.91;5012370;28;20259;-66
2022/05/30 01:47:54;;;;;;;12.20;8.87;;;;;;;9.42;nan;93190.03;4994402;28;20199;-66
2022/05/30 01:50:39;;;;;;;13.77;8.77;;;;;;;9.25;nan;93183.44;4982808;28;20211;-66
2022/05/30 01:53:34;;;;;;;17.30;9.27;;;;;;;9.25;nan;93191.81;4985039;28;20203;-66
2022/05/30 01:56:37;;;;;;;22.47;10.70;;;;;;;9.41;nan;93191.38;5011844;28;20823;-66
2022/05/30 01:59:23;;;;;;;25.53;11.60;;;;;;;9.37;nan;93191.13;4995577;28;20262;-66
2022/05/30 02:02:26;;;;;;;22.33;12.00;;;;;;;9.56;nan;93202.13;5007756;28;20545;-66
2022/05/30 02:05:11;;;;;;;20.57;11.97;;;;;;;9.74;nan;93195.63;4996337;28;20245;-66
2022/05/30 02:07:56;;;;;;;24.13;12.73;;;;;;;9.79;nan;93202.19;4996948;28;20211;-67
2022/05/30 02:10:44;;;;;;;27.13;13.80;;;;;;;9.99;nan;93203.44;4997912;28;20195;-67
2022/05/30 02:13:29;;;;;;;24.13;12.47;;;;;;;10.02;nan;93196.63;4997138;28;20250;-67
2022/05/30 02:19:27;;;;;;;21.40;11.13;;;;;;;10.30;nan;93199.72;5015606;28;20261;-68
2022/05/30 02:22:15;;;;;;;19.23;11.50;;;;;;;10.35;nan;93204.22;4997531;28;20222;-67
2022/05/30 02:25:00;;;;;;;20.47;11.13;;;;;;;10.58;nan;93190.22;4993855;28;20294;-67
2022/05/30 02:27:44;;;;;;;16.43;10.23;;;;;;;10.51;nan;93177.19;5009487;28;20234;-67
2022/05/30 02:30:28;;;;;;;17.20;10.13;;;;;;;10.77;nan;93175.94;4994852;28;20202;-67
2022/05/30 02:39:21;;;;;;;17.40;9.70;;;;;;;11.07;nan;93173.41;4996807;28;20249;-67
2022/05/30 02:42:06;;;;;;;18.10;9.67;;;;;;;11.18;nan;93161.44;5012120;28;20223;-67
2022/05/30 02:44:53;;;;;;;14.17;9.10;;;;;;;11.17;nan;93168.41;4997081;28;20258;-67
2022/05/30 02:47:37;;;;;;;15.97;9.90;;;;;;;11.10;nan;93175.00;4993509;28;20210;-67
2022/05/30 02:50:26;;;;;;;29.00;12.30;;;;;;;10.90;nan;93178.09;4996785;28;20214;-67
2022/05/30 02:53:11;;;;;;;24.50;12.63;;;;;;;10.76;nan;93174.47;4991087;28;20753;-66
2022/05/30 02:56:35;;;;;;;36.27;14.87;;;;;;;11.12;nan;93187.03;4950883;29;20200;-66
2022/05/30 02:59:20;;;;;;;21.87;12.77;;;;;;;11.10;nan;93183.41;4934818;29;20228;-66
2022/05/30 03:02:11;;;;;;;27.87;13.40;;;;;;;11.04;nan;93185.88;4987778;28;20221;-67
2022/05/30 03:04:55;;;;;;;34.83;14.63;;;;;;;11.02;nan;93177.34;5011414;28;20285;-66
2022/05/30 03:07:39;;;;;;;25.57;12.50;;;;;;;11.20;nan;93181.19;5007522;28;20195;-66
2022/05/30 03:10:38;;;;;;;21.90;11.07;;;;;;;11.25;nan;93188.47;4996479;28;20206;-67
2022/05/30 03:13:23;;;;;;;27.77;11.77;;;;;;;11.17;nan;93185.94;4995210;28;20318;-66
2022/05/30 03:16:07;;;;;;;27.77;11.40;;;;;;;11.22;nan;93189.72;4996929;28;20203;-65
2022/05/30 03:18:55;;;;;;;43.87;13.40;;;;;;;11.46;nan;93184.75;4995575;28;20199;-67
2022/05/30 03:21:39;;;;;;;57.60;15.67;;;;;;;11.54;nan;93185.91;4995294;28;20215;-67
2022/05/30 03:24:24;;;;;;;63.77;16.37;;;;;;;11.77;nan;93178.75;4978942;28;20255;-67
2022/05/30 03:27:09;;;;;;;83.87;15.80;;;;;;;12.08;nan;93179.78;4999353;28;20214;-66
2022/05/30 03:29:53;;;;;;;114.03;18.13;;;;;;;11.94;nan;93181.81;4990728;28;20278;-67
2022/05/30 03:32:37;;;;;;;110.43;19.40;;;;;;;12.22;nan;93182.59;4993397;28;20313;-67
2022/05/30 03:35:22;;;;;;;135.20;18.57;;;;;;;12.40;nan;93186.41;4996577;28;20215;-66
2022/05/30 03:38:18;;;;;;;214.27;24.93;;;;;;;12.57;nan;93188.69;4992347;28;20242;-67
2022/05/30 03:41:31;;;;;;;63.30;14.17;;;;;;;12.69;nan;93193.47;4977739;28;20238;-67
2022/05/30 03:44:27;;;;;;;146.83;20.20;;;;;;;12.78;nan;93190.44;5000147;28;20278;-67
2022/05/30 03:47:12;;;;;;;121.27;18.00;;;;;;;12.95;nan;93187.13;5009562;28;20329;-66
2022/05/30 03:50:00;;;;;;;125.23;19.57;;;;;;;12.83;nan;93194.22;5001716;28;20575;-66
2022/05/30 03:52:44;;;;;;;72.87;16.63;;;;;;;13.04;nan;93187.50;5004275;28;20615;-66
2022/05/30 03:55:34;;;;;;;94.63;18.07;;;;;;;12.70;nan;93189.31;4999085;28;20205;-65
2022/05/30 03:58:19;;;;;;;96.20;16.40;;;;;;;12.78;nan;93189.72;4995389;28;20207;-65
2022/05/30 04:01:07;;;;;;;143.73;19.90;;;;;;;13.11;nan;93198.44;4997433;28;20202;-66
2022/05/30 04:03:51;;;;;;;68.40;17.90;;;;;;;13.19;nan;93192.53;5011455;28;20234;-65
2022/05/30 04:06:36;;;;;;;85.53;16.87;;;;;;;13.48;nan;93200.28;4995051;28;20258;-66
2022/05/30 04:09:20;;;;;;;56.40;15.00;;;;;;;13.61;nan;93205.16;4994616;28;20237;-65
2022/05/30 04:12:23;;;;;;;44.70;13.97;;;;;;;13.50;nan;93208.81;5023864;28;20206;-65
2022/05/30 04:15:26;;;;;;;46.90;14.57;;;;;;;13.97;nan;93204.06;5008824;28;20652;-65
2022/05/30 04:18:12;;;;;;;42.63;13.20;;;;;;;14.11;nan;93216.00;4993974;28;20978;-65
2022/05/30 04:20:57;;;;;;;48.27;14.93;;;;;;;14.27;nan;93207.56;4988051;28;20279;-65
2022/05/30 04:23:42;;;;;;;43.60;12.40;;;;;;;14.28;nan;93206.19;4995507;28;20219;-66
2022/05/30 04:26:28;;;;;;;30.33;12.63;;;;;;;14.25;nan;93203.94;5001656;28;20214;-65
2022/05/30 04:29:13;;;;;;;52.20;14.03;;;;;;;14.47;nan;93202.16;4995701;28;20317;-65
2022/05/30 04:32:18;;;;;;;23.83;10.00;;;;;;;14.37;nan;93205.25;5008332;28;20206;-65
2022/05/30 04:35:07;;;;;;;18.50;10.60;;;;;;;14.43;nan;93208.34;4990554;28;20688;-65
2022/05/30 04:37:51;;;;;;;18.57;9.57;;;;;;;14.72;nan;93207.50;5012039;28;20226;-65
2022/05/30 04:40:54;;;;;;;15.57;9.63;;;;;;;14.97;nan;93210.03;5015436;28;20197;-65
2022/05/30 04:44:14;;;;;;;14.60;9.00;;;;;;;15.03;nan;93211.66;4930986;29;20339;-65
2022/05/30 04:47:17;;;;;;;11.57;8.00;;;;;;;14.87;nan;93203.94;5010932;28;20206;-65
2022/05/30 04:50:16;;;;;;;10.57;8.13;;;;;;;15.22;nan;93199.78;5014415;28;20295;-65
2022/05/30 04:53:02;;;;;;;10.77;7.70;;;;;;;14.90;nan;93204.75;4996857;28;20202;-65
2022/05/30 04:56:21;;;;;;;17.80;8.87;;;;;;;15.15;nan;93215.00;5009375;28;20235;-65
2022/05/30 04:59:20;;;;;;;10.27;6.80;;;;;;;14.98;nan;93210.75;4995344;28;20298;-65
2022/05/30 05:02:09;;;;;;;10.03;7.37;;;;;;;14.73;nan;93208.25;4995989;28;20238;-65
2022/05/30 05:04:54;;;;;;;10.43;7.47;;;;;;;14.88;nan;93213.84;4998151;28;20601;-65
2022/05/30 05:07:48;;;;;;;10.77;7.50;;;;;;;14.83;nan;93209.41;4995576;28;20202;-65
2022/05/30 05:10:48;;;;;;;10.70;6.53;;;;;;;14.81;nan;93206.50;4996063;28;20593;-65
2022/05/30 05:13:58;;;;;;;11.07;6.70;;;;;;;14.81;nan;93206.50;5010587;28;20274;-65
2022/05/30 05:17:21;;;;;;;10.57;7.00;;;;;;;15.00;nan;93215.78;4993420;28;20211;-65
2022/05/30 05:20:07;;;;;;;8.67;6.70;;;;;;;14.78;nan;93213.41;4982618;28;20210;-65
2022/05/30 05:22:52;;;;;;;12.97;7.63;;;;;;;14.73;nan;93203.34;4994682;28;20230;-65
2022/05/30 05:25:48;;;;;;;10.60;7.33;;;;;;;14.30;nan;93202.75;4998160;28;20292;-65
2022/05/30 05:28:51;;;;;;;7.83;7.00;;;;;;;14.49;nan;93199.44;5006315;28;20194;-66
2022/05/30 05:31:35;;;;;;;8.87;7.07;;;;;;;14.39;nan;93194.03;5010961;28;20218;-66
2022/05/30 05:34:19;;;;;;;9.43;7.40;;;;;;;14.64;nan;93193.03;4992734;28;20347;-64
2022/05/30 05:37:03;;;;;;;11.83;7.83;;;;;;;14.63;nan;93188.78;4979548;28;20743;-65
2022/05/30 05:39:51;;;;;;;10.67;8.10;;;;;;;14.84;nan;93193.22;4992975;28;20207;-64
2022/05/30 05:42:35;;;;;;;11.53;8.47;;;;;;;15.01;nan;93194.63;4995179;28;20207;-65
2022/05/30 05:45:19;;;;;;;11.20;7.63;;;;;;;15.03;nan;93191.91;4998620;28;20261;-65
2022/05/30 05:48:04;;;;;;;9.67;7.03;;;;;;;15.07;nan;93197.72;4997622;28;20195;-65
2022/05/30 05:50:48;;;;;;;9.80;7.30;;;;;;;14.78;nan;93201.41;4997776;28;20257;-64
2022/05/30 05:53:34;;;;;;;7.20;5.97;;;;;;;15.13;nan;93201.53;4997420;28;20249;-64
2022/05/30 05:56:25;;;;;;;7.53;5.53;;;;;;;15.25;nan;93202.03;4991588;28;20270;-64
2022/05/30 05:59:09;;;;;;;9.30;7.03;;;;;;;15.13;nan;93207.19;5004759;28;20203;-64
2022/05/30 06:01:53;;;;;;;8.30;6.47;;;;;;;15.21;nan;93201.88;5001669;28;20206;-64
2022/05/30 06:04:39;;;;;;;10.73;6.80;;;;;;;15.17;nan;93201.72;4992558;28;20227;-64
2022/05/30 06:07:44;;;;;;;9.33;7.83;;;;;;;15.53;nan;93208.19;5009281;28;20721;-64
2022/05/30 06:11:08;;;;;;;8.90;6.47;;;;;;;15.36;nan;93206.78;4985076;28;20283;-64
2022/05/30 06:13:54;;;;;;;8.27;5.73;;;;;;;14.73;nan;93211.78;5003825;28;20254;-64
2022/05/30 06:16:40;;;;;;;7.73;5.43;;;;;;;15.26;nan;93202.78;5002729;28;20203;-64
2022/05/30 06:19:25;;;;;;;6.00;5.40;;;;;;;15.68;nan;93201.75;4993393;28;20230;-64
2022/05/30 06:22:10;;;;;;;8.97;7.23;;;;;;;15.63;nan;93205.78;4996695;28;20202;-64
2022/05/30 06:24:55;;;;;;;8.63;6.97;;;;;;;15.82;nan;93203.69;4994439;28;20277;-64
2022/05/30 06:28:12;;;;;;;5.83;5.33;;;;;;;15.37;nan;93201.81;4977961;28;20703;-63
2022/05/30 06:31:14;;;;;;;5.80;5.23;;;;;;;15.71;nan;93203.28;5013106;28;20202;-64
2022/05/30 06:34:01;;;;;;;5.90;4.53;;;;;;;15.78;nan;93199.34;5003606;28;20195;-64
2022/05/30 06:36:52;;;;;;;7.33;4.67;;;;;;;15.95;nan;93208.44;4982506;28;20234;-64
2022/05/30 06:39:37;;;;;;;5.20;4.70;;;;;;;16.14;nan;93205.69;5012144;28;20285;-64
2022/05/30 06:42:26;;;;;;;5.63;4.70;;;;;;;16.01;nan;93203.78;5009462;28;20405;-64
2022/05/30 06:45:31;;;;;;;5.07;4.17;;;;;;;15.62;nan;93207.13;5010380;28;20230;-64
2022/05/30 06:48:34;;;;;;;5.23;4.03;;;;;;;16.27;nan;93206.91;5011761;28;20950;-65
2022/05/30 06:51:50;;;;;;;3.27;2.97;;;;;;;16.23;nan;93211.69;4989054;28;20230;-64
2022/05/30 06:54:34;;;;;;;6.73;3.23;;;;;;;16.88;nan;93214.88;4995707;28;20279;-64
2022/05/30 07:00:22;;;;;;;3.67;1.97;;;;;;;16.81;nan;93227.31;4996680;28;20206;-64
2022/05/30 07:03:27;;;;;;;3.97;1.73;;;;;;;16.63;nan;93229.47;4976920;28;20242;-64
2022/05/30 07:06:33;;;;;;;2.83;1.60;;;;;;;17.05;nan;93239.53;5009775;28;20210;-64
2022/05/30 07:09:29;;;;;;;3.17;1.10;;;;;;;16.99;nan;93230.81;4996604;28;20373;-64
2022/05/30 07:12:45;;;;;;;2.53;1.17;;;;;;;17.99;nan;93237.84;4968875;28;20199;-64
2022/05/30 07:15:31;;;;;;;1.40;1.10;;;;;;;17.75;nan;93237.75;4995525;28;20226;-64
2022/05/30 07:18:18;;;;;;;1.47;0.80;;;;;;;17.65;nan;93235.28;4995244;28;20355;-64
2022/05/30 07:21:05;;;;;;;0.90;0.70;;;;;;;18.36;nan;93234.06;5000478;28;20330;-65
2022/05/30 07:23:49;;;;;;;1.00;0.73;;;;;;;18.67;nan;93239.31;5008412;28;20218;-65
2022/05/30 07:26:52;;;;;;;0.70;0.63;;;;;;;18.66;nan;93232.19;5007698;28;20236;-65
2022/05/30 07:29:55;;;;;;;1.00;0.60;;;;;;;19.16;nan;93240.72;5004837;28;20195;-65
2022/05/30 07:32:57;;;;;;;1.13;0.77;;;;;;;19.97;nan;93242.94;5012002;28;20567;-66
2022/05/30 07:36:14;;;;;;;1.55;0.63;;;;;;;20.38;nan;93251.09;4986351;28;20226;-66
2022/05/30 07:39:24;;;;;;;1.45;0.70;;;;;;;20.18;nan;93239.22;5010054;28;20214;-67
2022/05/30 07:42:25;;;;;;;0.93;0.50;;;;;;;20.65;nan;93248.88;4995969;28;20687;-66
2022/05/30 07:45:31;;;;;;;1.65;0.60;;;;;;;21.92;nan;93251.50;4995482;28;20221;-66
2022/05/30 07:48:36;;;;;;;0.90;0.60;;;;;;;23.52;nan;93254.00;4968621;28;20267;-67
2022/05/30 07:51:39;;;;;;;0.85;0.50;;;;;;;21.86;nan;93257.09;5009135;28;20223;-67
2022/05/30 07:54:42;;;;;;;3.42;0.85;;;;;;;20.98;nan;93251.03;4993559;28;20226;-67
2022/05/30 08:00:42;;;;;;;1.13;0.60;;;;;;;22.11;nan;93256.16;4994971;28;20273;-68
2022/05/30 08:03:33;;;;;;;0.77;0.70;;;;;;;22.12;nan;93249.03;4995724;28;20214;-68
2022/05/30 08:06:41;;;;;;;0.70;0.70;;;;;;;22.39;nan;93252.34;4981468;28;20202;-67
2022/05/30 08:09:35;;;;;;;0.50;0.50;;;;;;;22.58;nan;93256.94;5011189;28;20322;-68
2022/05/30 08:12:28;;;;;;;1.35;0.70;;;;;;;23.89;nan;93254.44;4993916;28;20575;-68
2022/05/30 08:15:14;;;;;;;1.77;0.80;;;;;;;23.98;nan;93255.97;5011104;28;21023;-68
2022/05/30 08:18:23;;;;;;;1.17;0.65;;;;;;;25.62;nan;93260.09;4995445;28;20209;-69
2022/05/30 08:21:11;;;;;;;1.73;0.73;;;;;;;25.47;nan;93261.47;4999626;28;20257;-69
2022/05/30 08:23:58;;;;;;;0.68;0.52;;;;;;;24.30;nan;93264.91;5003854;28;20253;-70
2022/05/30 08:26:42;;;;;;;1.35;0.50;;;;;;;25.62;nan;93265.84;4995635;28;20294;-71
2022/05/30 08:29:53;;;;;;;1.23;0.60;;;;;;;25.54;nan;93268.69;4977935;28;20328;-71
2022/05/30 08:32:40;;;;;;;0.63;0.52;;;;;;;26.22;nan;93270.38;4994566;28;20211;-72
2022/05/30 08:36:03;;;;;;;0.80;0.45;;;;;;;26.49;nan;93272.59;4977056;28;20249;-73
2022/05/30 08:38:47;;;;;;;0.95;0.60;;;;;;;25.71;nan;93275.94;5007373;28;20202;-74
2022/05/30 08:41:48;;;;;;;1.38;0.75;;;;;;;25.19;nan;93284.94;4995642;28;20267;-72
2022/05/30 08:44:56;;;;;;;1.05;0.57;;;;;;;24.97;nan;93282.66;4986088;28;20350;-72
2022/05/30 08:47:59;;;;;;;4.13;0.98;;;;;;;25.23;nan;93285.72;4989253;28;20225;-72
2022/05/30 08:50:58;;;;;;;1.88;0.60;;;;;;;24.12;nan;93284.75;4981224;28;20203;-72
2022/05/30 08:54:01;;;;;;;2.90;0.70;;;;;;;24.85;nan;93282.56;4991161;28;20749;-72
2022/05/30 08:56:49;;;;;;;0.38;0.38;;;;;;;24.00;nan;93287.47;4976978;28;20206;-73
2022/05/30 09:00:22;;;;;;;1.38;0.70;;;;;;;25.36;nan;93287.22;4984343;28;20227;-73
2022/05/30 09:03:38;;;;;;;1.52;0.60;;;;;;;25.71;nan;93296.03;4997213;28;20254;-73
2022/05/30 09:06:28;;;;;;;2.03;1.08;;;;;;;27.27;nan;93302.81;4992575;28;20226;-74
2022/05/30 09:09:27;;;;;;;2.08;0.65;;;;;;;27.36;nan;93306.38;5009900;28;20233;-74
2022/05/30 09:12:36;;;;;;;1.05;0.55;;;;;;;26.07;nan;93298.31;4993681;28;20202;-74
2022/05/30 09:16:03;;;;;;;1.05;0.70;;;;;;;25.56;nan;93303.09;4996646;28;20195;-74
2022/05/30 09:18:53;;;;;;;3.70;1.15;;;;;;;25.46;nan;93294.44;4988550;28;20249;-74
2022/05/30 09:21:39;;;;;;;1.52;0.80;;;;;;;26.95;nan;93300.66;4996489;28;20219;-73
2022/05/30 09:24:23;;;;;;;1.00;0.70;;;;;;;26.75;nan;93297.75;4998496;28;20938;-74
2022/05/30 09:27:07;;;;;;;1.17;0.63;;;;;;;26.15;nan;93290.47;5009044;28;20667;-73
2022/05/30 09:30:00;;;;;;;3.13;0.75;;;;;;;26.08;nan;93296.88;4992195;28;20191;-75
2022/05/30 09:33:32;;;;;;;0.80;0.63;;;;;;;24.67;nan;93302.47;4942372;29;20738;-75
2022/05/30 09:36:47;;;;;;;2.60;0.80;;;;;;;25.07;nan;93290.59;5012226;28;20205;-74
2022/05/30 09:39:55;;;;;;;1.33;0.77;;;;;;;26.31;nan;93294.81;4993387;28;20722;-74
2022/05/30 09:42:49;;;;;;;2.20;0.70;;;;;;;26.45;nan;93291.97;5002836;28;20253;-74
2022/05/30 09:45:34;;;;;;;0.80;0.80;;;;;;;24.67;nan;93291.00;5011857;28;20250;-74
2022/05/30 09:48:23;;;;;;;5.10;0.90;;;;;;;25.63;nan;93293.13;4998602;28;20207;-75
2022/05/30 09:51:30;;;;;;;0.80;0.50;;;;;;;25.44;nan;93288.69;4998476;28;20571;-74
2022/05/30 09:54:26;;;;;;;0.68;0.55;;;;;;;25.58;nan;93300.28;4998168;28;20211;-73
2022/05/30 09:57:38;;;;;;;4.82;0.60;;;;;;;26.30;nan;93293.38;4988336;28;20230;-73
2022/05/30 10:00:28;;;;;;;0.98;0.68;;;;;;;27.93;nan;93294.72;4998514;28;20198;-74
2022/05/30 10:03:30;;;;;;;1.35;0.63;;;;;;;27.58;nan;93297.00;5012842;28;20935;-73
2022/05/30 10:06:34;;;;;;;1.65;0.68;;;;;;;28.95;nan;93301.38;5013346;28;20765;-74
2022/05/30 10:09:57;;;;;;;1.25;0.57;;;;;;;29.50;nan;93300.94;5001852;28;20226;-74
2022/05/30 10:12:59;;;;;;;0.63;0.63;;;;;;;31.56;nan;93306.81;4996874;28;20246;-74
2022/05/30 10:16:14;;;;;;;1.35;0.60;;;;;;;29.23;nan;93306.19;5009093;28;20258;-73
2022/05/30 10:19:04;;;;;;;3.47;0.90;;;;;;;29.77;nan;93304.97;4988287;28;20283;-73
2022/05/30 10:28:57;;;;;;;3.13;0.60;;;;;;;27.08;nan;93306.41;5005975;28;20211;-74
2022/05/30 10:32:35;;;;;;;0.70;0.60;;;;;;;26.31;nan;93306.31;4998254;28;20230;-74
2022/05/30 10:35:34;;;;;;;1.13;0.80;;;;;;;26.21;nan;93298.38;4996850;28;20202;-74
2022/05/30 10:38:55;;;;;;;1.33;0.63;;;;;;;26.81;nan;93303.50;4995676;28;20586;-74
2022/05/30 10:42:01;;;;;;;1.35;1.00;;;;;;;27.55;nan;93299.16;4989852;28;20191;-74
2022/05/30 10:44:54;;;;;;;1.70;0.70;;;;;;;29.26;nan;93299.66;4989674;28;20383;-74
2022/05/30 10:47:45;;;;;;;2.38;0.80;;;;;;;29.49;nan;93290.84;4996718;28;20333;-74
2022/05/30 10:50:46;;;;;;;3.92;0.65;;;;;;;30.50;nan;93301.22;4993633;28;20330;-75
2022/05/30 10:53:42;;;;;;;0.50;0.50;;;;;;;29.59;nan;93299.38;4996919;28;20202;-74
2022/05/30 10:56:41;;;;;;;1.58;0.65;;;;;;;29.18;nan;93293.97;4994964;28;20703;-74
2022/05/30 10:59:41;;;;;;;3.15;0.90;;;;;;;29.90;nan;93291.81;4994560;28;20194;-74
2022/05/30 11:02:39;;;;;;;1.20;0.80;;;;;;;28.06;nan;93307.63;4990610;28;20311;-74
2022/05/30 11:05:29;;;;;;;0.80;0.45;;;;;;;28.07;nan;93303.31;4981943;28;20241;-74
2022/05/30 11:08:53;;;;;;;1.70;1.00;;;;;;;32.10;nan;93313.78;4995339;28;20254;-77
2022/05/30 11:11:51;;;;;;;1.63;0.60;;;;;;;31.96;nan;93319.16;5008812;28;20222;-77
2022/05/30 11:15:02;;;;;;;1.38;0.80;;;;;;;31.88;nan;93317.09;4980267;28;20818;-76
2022/05/30 11:18:23;;;;;;;0.77;0.63;;;;;;;34.23;nan;93322.63;4980368;28;20199;-76
2022/05/30 11:21:52;;;;;;;1.00;0.70;;;;;;;34.40;nan;93332.31;5010607;28;20253;-77
2022/05/30 11:24:37;;;;;;;3.13;0.80;;;;;;;35.00;nan;93320.38;4993838;28;20862;-77
2022/05/30 11:27:30;;;;;;;0.98;0.70;;;;;;;33.87;nan;93324.31;5006962;28;20194;-77
2022/05/30 11:30:22;;;;;;;1.52;0.63;;;;;;;33.07;nan;93325.53;5007571;28;20219;-77
2022/05/30 11:33:28;;;;;;;1.90;0.70;;;;;;;34.65;nan;93324.31;5010285;28;20653;-78
2022/05/30 11:36:36;;;;;;;2.45;1.05;;;;;;;33.93;nan;93339.41;4996164;28;20695;-78
2022/05/30 11:39:37;;;;;;;1.02;0.57;;;;;;;35.50;nan;93344.28;5009191;28;20215;-79
2022/05/30 11:42:48;;;;;;;1.00;0.80;;;;;;;34.31;nan;93348.59;4991840;28;20727;-77
2022/05/30 11:45:54;;;;;;;3.35;0.73;;;;;;;33.72;nan;93339.22;5010154;28;20226;-78
2022/05/30 11:48:55;;;;;;;2.30;0.88;;;;;;;34.00;nan;93349.41;5011316;28;20254;-78
2022/05/30 11:52:07;;;;;;;1.67;1.10;;;;;;;33.58;nan;93351.16;5010058;28;20254;-77
2022/05/30 11:55:07;;;;;;;1.23;0.80;;;;;;;31.52;nan;93335.84;4989809;28;20206;-78
2022/05/30 11:58:20;;;;;;;1.48;0.90;;;;;;;32.40;nan;93338.59;4988491;28;20679;-78
2022/05/30 12:01:07;;;;;;;0.65;0.50;;;;;;;34.10;nan;93345.47;4998171;28;20203;-78
2022/05/30 12:04:25;;;;;;;2.80;0.95;;;;;;;32.77;nan;93338.53;4993907;28;20746;-79
2022/05/30 12:07:28;;;;;;;1.30;0.80;;;;;;;34.80;nan;93342.09;4995684;28;20199;-78
2022/05/30 12:10:23;;;;;;;0.73;0.60;;;;;;;34.23;nan;93345.91;5008921;28;20249;-78
2022/05/30 12:13:25;;;;;;;0.82;0.70;;;;;;;31.37;nan;93342.63;5004843;28;20206;-78
2022/05/30 12:16:22;;;;;;;0.98;0.70;;;;;;;31.26;nan;93337.00;4995999;28;20201;-78
2022/05/30 12:25:54;;;;;;;1.67;0.90;;;;;;;33.20;nan;93341.22;5006025;28;20233;-77
2022/05/30 12:28:41;;;;;;;1.13;0.60;;;;;;;35.54;nan;93350.72;5006936;28;20283;-78
2022/05/30 12:31:37;;;;;;;2.28;0.68;;;;;;;35.75;nan;93352.97;4994742;28;20250;-77
2022/05/30 12:34:58;;;;;;;1.65;0.65;;;;;;;35.74;nan;93360.31;4994432;28;20671;-79
2022/05/30 12:37:49;;;;;;;1.77;0.98;;;;;;;37.30;nan;93357.59;5008160;28;20198;-76
2022/05/30 12:40:43;;;;;;;1.35;0.70;;;;;;;37.06;nan;93359.25;5005123;28;20235;-76
2022/05/30 12:43:29;;;;;;;3.65;1.00;;;;;;;38.68;nan;93362.06;4989727;28;20203;-76
2022/05/30 12:46:17;;;;;;;1.55;0.63;;;;;;;35.88;nan;93359.81;5004129;28;20203;-76
2022/05/30 12:49:15;;;;;;;2.20;0.85;;;;;;;38.65;nan;93372.44;5010530;28;20199;-76
2022/05/30 12:52:04;;;;;;;2.05;0.82;;;;;;;36.37;nan;93362.47;5008780;28;20206;-76
2022/05/30 12:54:57;;;;;;;0.98;0.85;;;;;;;36.20;nan;93369.69;5004447;28;20202;-76
2022/05/30 12:57:44;;;;;;;0.75;0.60;;;;;;;33.78;nan;93370.31;5006298;28;20266;-77
2022/05/30 13:00:41;;;;;;;1.10;0.63;;;;;;;34.90;nan;93357.06;4995838;28;20198;-77
2022/05/30 13:03:29;;;;;;;3.00;0.77;;;;;;;33.95;nan;93365.50;4998353;28;20713;-75
2022/05/30 13:06:24;;;;;;;1.75;0.80;;;;;;;33.81;nan;93368.78;5007190;28;20278;-74
2022/05/30 13:09:40;;;;;;;3.35;0.90;;;;;;;34.77;nan;93369.81;4998189;28;20202;-75
2022/05/30 13:13:03;;;;;;;2.95;0.70;;;;;;;34.69;nan;93372.97;5008865;28;20223;-78
2022/05/30 13:15:56;;;;;;;1.23;0.88;;;;;;;32.14;nan;93365.19;4994921;28;20230;-76
2022/05/30 13:18:40;;;;;;;2.42;0.80;;;;;;;32.34;nan;93364.78;5011950;28;20195;-75
2022/05/30 13:21:28;;;;;;;1.58;0.80;;;;;;;33.74;nan;93382.03;4995589;28;20262;-75
2022/05/30 13:24:31;;;;;;;1.85;0.75;;;;;;;32.17;nan;93381.06;5012005;28;20227;-77
2022/05/30 13:27:15;;;;;;;2.70;0.70;;;;;;;33.86;nan;93381.72;5009402;28;20227;-75
2022/05/30 13:30:08;;;;;;;4.57;0.85;;;;;;;34.66;nan;93383.94;5008700;28;20269;-74
2022/05/30 13:32:53;;;;;;;1.10;0.60;;;;;;;34.70;nan;93388.91;5003546;28;20246;-76
2022/05/30 13:35:39;;;;;;;1.55;0.70;;;;;;;33.96;nan;93384.38;5008145;28;20192;-76
2022/05/30 13:38:37;;;;;;;3.03;0.73;;;;;;;34.12;nan;93391.97;4995428;28;20210;-75
2022/05/30 13:41:21;;;;;;;1.42;0.63;;;;;;;32.31;nan;93380.81;4987612;28;20695;-75
2022/05/30 13:44:11;;;;;;;2.63;0.60;;;;;;;32.90;nan;93377.41;5009945;28;20238;-75
2022/05/30 13:47:02;;;;;;;1.63;0.82;;;;;;;35.64;nan;93388.25;4979674;28;20207;-75
2022/05/30 13:49:52;;;;;;;2.28;0.60;;;;;;;36.92;nan;93389.69;5006861;28;20257;-74
2022/05/30 13:52:38;;;;;;;2.88;0.88;;;;;;;35.68;nan;93393.97;5010040;28;20250;-74
2022/05/30 13:55:24;;;;;;;1.88;0.90;;;;;;;34.16;nan;93388.94;5009328;28;20238;-77
2022/05/30 13:58:08;;;;;;;2.05;1.15;;;;;;;35.04;nan;93390.16;5012318;28;20269;-73
2022/05/30 14:00:54;;;;;;;2.65;1.00;;;;;;;37.21;nan;93398.84;4982792;28;20277;-74
2022/05/30 14:03:47;;;;;;;3.08;1.13;;;;;;;37.12;nan;93408.69;5009569;28;20203;-73
2022/05/30 14:06:43;;;;;;;3.40;1.48;;;;;;;38.16;nan;93406.03;5009407;28;20639;-73
2022/05/30 14:09:27;;;;;;;2.63;1.00;;;;;;;38.20;nan;93399.31;4995953;28;20283;-73
2022/05/30 14:13:02;;;;;;;1.98;1.15;;;;;;;38.42;nan;93415.91;5360607;22;20254;-72
2022/05/30 14:15:55;;;;;;;1.20;0.88;;;;;;;37.67;nan;93405.09;5000722;28;20767;-73
2022/05/30 14:18:45;;;;;;;1.98;1.05;;;;;;;36.57;nan;93395.38;5008135;28;20688;-72
2022/05/30 14:21:32;;;;;;;1.25;1.00;;;;;;;37.15;nan;93404.94;5002704;28;20585;-74
2022/05/30 14:24:32;;;;;;;2.72;1.00;;;;;;;36.62;nan;93396.63;4994311;28;20295;-74
2022/05/30 14:27:18;;;;;;;2.92;1.35;;;;;;;35.11;nan;93400.13;5006056;28;20696;-73
2022/05/30 14:30:15;;;;;;;2.88;1.80;;;;;;;38.54;nan;93406.63;4996934;28;20202;-73